sensor_id;sensor_type;location;lat;lon;timestamp;P1;durP1;ratioP1;P2;durP2;ratioP2
17340;SDS011;8788;49.930;8.660;2023-04-15T00:00:09;2.45;;;1.83;;
17340;SDS011;8788;49.930;8.660;2023-04-15T00:02:41;5.40;;;2.53;;
17340;SDS011;8788;49.930;8.660;2023-04-15T00:05:09;5.57;;;2.50;;
17340;SDS011;8788;49.930;8.660;2023-04-15T00:07:36;5.45;;;2.75;;
17340;SDS011;8788;49.930;8.660;2023-04-15T00:10:05;6.30;;;2.40;;
17340;SDS011;8788;49.930;8.660;2023-04-15T00:12:33;4.35;;;2.50;;
17340;SDS011;8788;49.930;8.660;2023-04-15T00:15:02;5.43;;;2.33;;
17340;SDS011;8788;49.930;8.660;2023-04-15T00:17:29;5.22;;;2.50;;
17340;SDS011;8788;49.930;8.660;2023-04-15T00:19:56;4.35;;;2.00;;
17340;SDS011;8788;49.930;8.660;2023-04-15T00:22:24;4.57;;;2.15;;
17340;SDS011;8788;49.930;8.660;2023-04-15T00:24:51;3.63;;;2.22;;
17340;SDS011;8788;49.930;8.660;2023-04-15T00:27:18;6.40;;;1.98;;
17340;SDS011;8788;49.930;8.660;2023-04-15T00:29:45;3.42;;;1.73;;
17340;SDS011;8788;49.930;8.660;2023-04-15T00:32:14;2.25;;;1.63;;
17340;SDS011;8788;49.930;8.660;2023-04-15T00:34:41;3.58;;;1.83;;
17340;SDS011;8788;49.930;8.660;2023-04-15T00:37:08;2.53;;;1.77;;
17340;SDS011;8788;49.930;8.660;2023-04-15T00:39:35;2.22;;;1.52;;
17340;SDS011;8788;49.930;8.660;2023-04-15T00:42:03;1.92;;;1.70;;
17340;SDS011;8788;49.930;8.660;2023-04-15T00:44:30;5.50;;;1.83;;
17340;SDS011;8788;49.930;8.660;2023-04-15T00:46:58;3.15;;;1.50;;
17340;SDS011;8788;49.930;8.660;2023-04-15T00:49:27;1.83;;;1.60;;
17340;SDS011;8788;49.930;8.660;2023-04-15T00:51:56;6.55;;;1.67;;
17340;SDS011;8788;49.930;8.660;2023-04-15T00:54:23;3.20;;;1.75;;
17340;SDS011;8788;49.930;8.660;2023-04-15T00:56:50;4.50;;;2.05;;
17340;SDS011;8788;49.930;8.660;2023-04-15T00:59:18;4.45;;;1.98;;
17340;SDS011;8788;49.930;8.660;2023-04-15T01:01:46;5.07;;;1.80;;
17340;SDS011;8788;49.930;8.660;2023-04-15T01:04:14;4.18;;;1.98;;
17340;SDS011;8788;49.930;8.660;2023-04-15T01:06:43;2.63;;;2.00;;
17340;SDS011;8788;49.930;8.660;2023-04-15T01:09:10;2.22;;;1.75;;
17340;SDS011;8788;49.930;8.660;2023-04-15T01:11:37;2.80;;;1.58;;
17340;SDS011;8788;49.930;8.660;2023-04-15T01:14:07;2.35;;;1.35;;
17340;SDS011;8788;49.930;8.660;2023-04-15T01:16:35;2.35;;;1.55;;
17340;SDS011;8788;49.930;8.660;2023-04-15T01:19:04;4.05;;;1.60;;
17340;SDS011;8788;49.930;8.660;2023-04-15T01:21:35;3.20;;;1.67;;
17340;SDS011;8788;49.930;8.660;2023-04-15T01:24:04;10.82;;;2.30;;
17340;SDS011;8788;49.930;8.660;2023-04-15T01:26:37;7.05;;;1.60;;
17340;SDS011;8788;49.930;8.660;2023-04-15T01:29:06;3.83;;;1.50;;
17340;SDS011;8788;49.930;8.660;2023-04-15T01:31:33;1.75;;;1.60;;
17340;SDS011;8788;49.930;8.660;2023-04-15T01:34:00;1.65;;;1.45;;
17340;SDS011;8788;49.930;8.660;2023-04-15T01:36:27;1.70;;;1.40;;
17340;SDS011;8788;49.930;8.660;2023-04-15T01:38:55;4.93;;;2.03;;
17340;SDS011;8788;49.930;8.660;2023-04-15T01:41:24;4.57;;;1.77;;
17340;SDS011;8788;49.930;8.660;2023-04-15T01:43:53;3.75;;;2.30;;
17340;SDS011;8788;49.930;8.660;2023-04-15T01:46:21;5.30;;;2.15;;
17340;SDS011;8788;49.930;8.660;2023-04-15T01:48:48;3.03;;;2.10;;
17340;SDS011;8788;49.930;8.660;2023-04-15T01:51:21;2.50;;;2.10;;
17340;SDS011;8788;49.930;8.660;2023-04-15T01:53:48;6.15;;;2.45;;
17340;SDS011;8788;49.930;8.660;2023-04-15T01:56:16;3.38;;;2.00;;
17340;SDS011;8788;49.930;8.660;2023-04-15T01:58:44;4.47;;;2.50;;
17340;SDS011;8788;49.930;8.660;2023-04-15T02:01:12;2.97;;;2.60;;
17340;SDS011;8788;49.930;8.660;2023-04-15T02:03:41;5.13;;;3.25;;
17340;SDS011;8788;49.930;8.660;2023-04-15T02:06:08;5.97;;;2.83;;
17340;SDS011;8788;49.930;8.660;2023-04-15T02:08:35;4.07;;;3.00;;
17340;SDS011;8788;49.930;8.660;2023-04-15T02:11:06;4.72;;;2.70;;
17340;SDS011;8788;49.930;8.660;2023-04-15T02:13:33;6.07;;;3.50;;
17340;SDS011;8788;49.930;8.660;2023-04-15T02:16:00;7.88;;;3.10;;
17340;SDS011;8788;49.930;8.660;2023-04-15T02:18:29;5.70;;;3.50;;
17340;SDS011;8788;49.930;8.660;2023-04-15T02:20:56;7.10;;;3.75;;
17340;SDS011;8788;49.930;8.660;2023-04-15T02:23:24;5.13;;;3.47;;
17340;SDS011;8788;49.930;8.660;2023-04-15T02:25:51;3.65;;;3.05;;
17340;SDS011;8788;49.930;8.660;2023-04-15T02:28:18;4.63;;;2.83;;
17340;SDS011;8788;49.930;8.660;2023-04-15T02:30:46;5.28;;;2.85;;
17340;SDS011;8788;49.930;8.660;2023-04-15T02:33:15;4.28;;;3.20;;
17340;SDS011;8788;49.930;8.660;2023-04-15T02:35:43;3.50;;;2.63;;
17340;SDS011;8788;49.930;8.660;2023-04-15T02:38:10;7.78;;;3.25;;
17340;SDS011;8788;49.930;8.660;2023-04-15T02:40:38;5.85;;;2.55;;
17340;SDS011;8788;49.930;8.660;2023-04-15T02:43:05;6.55;;;3.35;;
17340;SDS011;8788;49.930;8.660;2023-04-15T02:45:33;3.30;;;3.00;;
17340;SDS011;8788;49.930;8.660;2023-04-15T02:48:02;4.55;;;3.00;;
17340;SDS011;8788;49.930;8.660;2023-04-15T02:50:30;5.28;;;3.05;;
17340;SDS011;8788;49.930;8.660;2023-04-15T02:52:59;5.50;;;3.25;;
17340;SDS011;8788;49.930;8.660;2023-04-15T02:55:27;4.22;;;2.95;;
17340;SDS011;8788;49.930;8.660;2023-04-15T02:57:54;3.28;;;2.97;;
17340;SDS011;8788;49.930;8.660;2023-04-15T03:00:22;4.88;;;3.13;;
17340;SDS011;8788;49.930;8.660;2023-04-15T03:02:50;3.90;;;3.35;;
17340;SDS011;8788;49.930;8.660;2023-04-15T03:05:23;4.18;;;3.20;;
17340;SDS011;8788;49.930;8.660;2023-04-15T03:07:50;5.63;;;3.10;;
17340;SDS011;8788;49.930;8.660;2023-04-15T03:10:19;3.72;;;2.85;;
17340;SDS011;8788;49.930;8.660;2023-04-15T03:12:47;3.53;;;3.03;;
17340;SDS011;8788;49.930;8.660;2023-04-15T03:15:17;9.10;;;3.30;;
17340;SDS011;8788;49.930;8.660;2023-04-15T03:17:48;4.40;;;3.55;;
17340;SDS011;8788;49.930;8.660;2023-04-15T03:20:15;5.18;;;3.47;;
17340;SDS011;8788;49.930;8.660;2023-04-15T03:22:42;4.03;;;3.17;;
17340;SDS011;8788;49.930;8.660;2023-04-15T03:25:10;5.53;;;3.30;;
17340;SDS011;8788;49.930;8.660;2023-04-15T03:27:38;3.40;;;2.25;;
17340;SDS011;8788;49.930;8.660;2023-04-15T03:30:07;2.05;;;1.85;;
17340;SDS011;8788;49.930;8.660;2023-04-15T03:32:36;4.35;;;2.30;;
17340;SDS011;8788;49.930;8.660;2023-04-15T03:35:05;4.82;;;2.25;;
17340;SDS011;8788;49.930;8.660;2023-04-15T03:37:32;2.45;;;1.77;;
17340;SDS011;8788;49.930;8.660;2023-04-15T03:39:59;2.55;;;2.15;;
17340;SDS011;8788;49.930;8.660;2023-04-15T03:42:27;4.40;;;2.35;;
17340;SDS011;8788;49.930;8.660;2023-04-15T03:44:55;5.30;;;2.85;;
17340;SDS011;8788;49.930;8.660;2023-04-15T03:47:22;3.05;;;2.30;;
17340;SDS011;8788;49.930;8.660;2023-04-15T03:49:49;5.32;;;3.13;;
17340;SDS011;8788;49.930;8.660;2023-04-15T03:52:17;5.28;;;3.42;;
17340;SDS011;8788;49.930;8.660;2023-04-15T03:54:44;4.63;;;2.50;;
17340;SDS011;8788;49.930;8.660;2023-04-15T03:57:11;3.22;;;2.70;;
17340;SDS011;8788;49.930;8.660;2023-04-15T03:59:38;3.70;;;2.80;;
17340;SDS011;8788;49.930;8.660;2023-04-15T04:02:06;8.60;;;3.95;;
17340;SDS011;8788;49.930;8.660;2023-04-15T04:04:33;5.18;;;3.53;;
17340;SDS011;8788;49.930;8.660;2023-04-15T04:07:00;7.35;;;3.28;;
17340;SDS011;8788;49.930;8.660;2023-04-15T04:09:27;4.07;;;3.67;;
17340;SDS011;8788;49.930;8.660;2023-04-15T04:11:55;4.28;;;3.05;;
17340;SDS011;8788;49.930;8.660;2023-04-15T04:14:22;5.38;;;3.13;;
17340;SDS011;8788;49.930;8.660;2023-04-15T04:16:53;4.30;;;3.20;;
17340;SDS011;8788;49.930;8.660;2023-04-15T04:19:22;3.22;;;2.72;;
17340;SDS011;8788;49.930;8.660;2023-04-15T04:21:49;4.90;;;2.45;;
17340;SDS011;8788;49.930;8.660;2023-04-15T04:24:16;3.20;;;2.78;;
17340;SDS011;8788;49.930;8.660;2023-04-15T04:26:43;3.47;;;2.42;;
17340;SDS011;8788;49.930;8.660;2023-04-15T04:29:10;5.75;;;2.22;;
17340;SDS011;8788;49.930;8.660;2023-04-15T04:31:37;2.53;;;2.22;;
17340;SDS011;8788;49.930;8.660;2023-04-15T04:34:05;2.65;;;2.38;;
17340;SDS011;8788;49.930;8.660;2023-04-15T04:36:33;3.30;;;3.00;;
17340;SDS011;8788;49.930;8.660;2023-04-15T04:39:00;7.82;;;2.80;;
17340;SDS011;8788;49.930;8.660;2023-04-15T04:41:28;5.05;;;2.70;;
17340;SDS011;8788;49.930;8.660;2023-04-15T04:43:56;5.57;;;3.00;;
17340;SDS011;8788;49.930;8.660;2023-04-15T04:46:23;4.43;;;3.47;;
17340;SDS011;8788;49.930;8.660;2023-04-15T04:48:50;3.60;;;2.80;;
17340;SDS011;8788;49.930;8.660;2023-04-15T04:51:17;4.72;;;3.33;;
17340;SDS011;8788;49.930;8.660;2023-04-15T04:53:46;3.25;;;2.92;;
17340;SDS011;8788;49.930;8.660;2023-04-15T04:56:13;4.65;;;3.42;;
17340;SDS011;8788;49.930;8.660;2023-04-15T04:58:40;6.03;;;3.80;;
17340;SDS011;8788;49.930;8.660;2023-04-15T05:01:07;7.43;;;4.07;;
17340;SDS011;8788;49.930;8.660;2023-04-15T05:03:34;4.90;;;3.53;;
17340;SDS011;8788;49.930;8.660;2023-04-15T05:06:02;6.80;;;4.00;;
17340;SDS011;8788;49.930;8.660;2023-04-15T05:08:31;4.32;;;3.75;;
17340;SDS011;8788;49.930;8.660;2023-04-15T05:11:00;9.75;;;5.00;;
17340;SDS011;8788;49.930;8.660;2023-04-15T05:13:27;6.53;;;4.35;;
17340;SDS011;8788;49.930;8.660;2023-04-15T05:15:55;8.70;;;4.90;;
17340;SDS011;8788;49.930;8.660;2023-04-15T05:18:22;8.60;;;4.25;;
17340;SDS011;8788;49.930;8.660;2023-04-15T05:20:49;4.82;;;3.58;;
17340;SDS011;8788;49.930;8.660;2023-04-15T05:23:16;6.80;;;4.05;;
17340;SDS011;8788;49.930;8.660;2023-04-15T05:25:43;6.55;;;3.97;;
17340;SDS011;8788;49.930;8.660;2023-04-15T05:28:12;7.40;;;5.38;;
17340;SDS011;8788;49.930;8.660;2023-04-15T05:30:39;17.25;;;9.55;;
17340;SDS011;8788;49.930;8.660;2023-04-15T05:33:07;45.85;;;20.65;;
17340;SDS011;8788;49.930;8.660;2023-04-15T05:35:35;32.05;;;17.50;;
17340;SDS011;8788;49.930;8.660;2023-04-15T05:38:02;20.35;;;12.77;;
17340;SDS011;8788;49.930;8.660;2023-04-15T05:40:29;9.98;;;6.95;;
17340;SDS011;8788;49.930;8.660;2023-04-15T05:42:56;10.23;;;5.30;;
17340;SDS011;8788;49.930;8.660;2023-04-15T05:45:25;7.70;;;5.88;;
17340;SDS011;8788;49.930;8.660;2023-04-15T05:47:52;10.27;;;4.68;;
17340;SDS011;8788;49.930;8.660;2023-04-15T05:50:19;11.93;;;4.82;;
17340;SDS011;8788;49.930;8.660;2023-04-15T05:52:46;6.75;;;5.20;;
17340;SDS011;8788;49.930;8.660;2023-04-15T05:55:13;6.72;;;3.85;;
17340;SDS011;8788;49.930;8.660;2023-04-15T05:57:40;5.47;;;3.88;;
17340;SDS011;8788;49.930;8.660;2023-04-15T06:00:08;5.95;;;3.67;;
17340;SDS011;8788;49.930;8.660;2023-04-15T06:02:37;3.85;;;3.17;;
17340;SDS011;8788;49.930;8.660;2023-04-15T06:05:04;5.35;;;3.78;;
17340;SDS011;8788;49.930;8.660;2023-04-15T06:07:34;3.50;;;3.10;;
17340;SDS011;8788;49.930;8.660;2023-04-15T06:10:01;8.07;;;3.55;;
17340;SDS011;8788;49.930;8.660;2023-04-15T06:12:28;7.07;;;3.13;;
17340;SDS011;8788;49.930;8.660;2023-04-15T06:14:55;5.07;;;3.45;;
17340;SDS011;8788;49.930;8.660;2023-04-15T06:17:22;6.30;;;3.40;;
17340;SDS011;8788;49.930;8.660;2023-04-15T06:19:51;4.80;;;3.40;;
17340;SDS011;8788;49.930;8.660;2023-04-15T06:22:20;6.25;;;3.80;;
17340;SDS011;8788;49.930;8.660;2023-04-15T06:24:47;5.70;;;3.72;;
17340;SDS011;8788;49.930;8.660;2023-04-15T06:27:14;4.20;;;3.72;;
17340;SDS011;8788;49.930;8.660;2023-04-15T06:29:41;4.03;;;3.53;;
17340;SDS011;8788;49.930;8.660;2023-04-15T06:32:09;4.15;;;3.15;;
17340;SDS011;8788;49.930;8.660;2023-04-15T06:34:37;7.20;;;4.20;;
17340;SDS011;8788;49.930;8.660;2023-04-15T06:37:05;9.13;;;3.83;;
17340;SDS011;8788;49.930;8.660;2023-04-15T06:39:34;7.07;;;4.22;;
17340;SDS011;8788;49.930;8.660;2023-04-15T06:42:01;9.90;;;3.83;;
17340;SDS011;8788;49.930;8.660;2023-04-15T06:44:29;5.90;;;3.60;;
17340;SDS011;8788;49.930;8.660;2023-04-15T06:46:56;7.90;;;4.40;;
17340;SDS011;8788;49.930;8.660;2023-04-15T06:49:23;5.93;;;4.65;;
17340;SDS011;8788;49.930;8.660;2023-04-15T06:51:50;7.18;;;4.30;;
17340;SDS011;8788;49.930;8.660;2023-04-15T06:54:19;5.80;;;4.55;;
17340;SDS011;8788;49.930;8.660;2023-04-15T06:56:46;7.65;;;3.90;;
17340;SDS011;8788;49.930;8.660;2023-04-15T06:59:14;6.45;;;3.92;;
17340;SDS011;8788;49.930;8.660;2023-04-15T07:01:41;5.50;;;4.85;;
17340;SDS011;8788;49.930;8.660;2023-04-15T07:04:08;7.28;;;4.75;;
17340;SDS011;8788;49.930;8.660;2023-04-15T07:06:35;6.07;;;5.03;;
17340;SDS011;8788;49.930;8.660;2023-04-15T07:09:03;4.90;;;4.32;;
17340;SDS011;8788;49.930;8.660;2023-04-15T07:11:31;7.80;;;4.68;;
17340;SDS011;8788;49.930;8.660;2023-04-15T07:13:58;8.43;;;5.00;;
17340;SDS011;8788;49.930;8.660;2023-04-15T07:16:25;12.57;;;5.75;;
17340;SDS011;8788;49.930;8.660;2023-04-15T07:18:52;8.07;;;5.35;;
17340;SDS011;8788;49.930;8.660;2023-04-15T07:21:20;6.85;;;6.03;;
17340;SDS011;8788;49.930;8.660;2023-04-15T07:23:48;6.78;;;4.78;;
17340;SDS011;8788;49.930;8.660;2023-04-15T07:26:15;5.35;;;3.90;;
17340;SDS011;8788;49.930;8.660;2023-04-15T07:28:43;7.28;;;4.13;;
17340;SDS011;8788;49.930;8.660;2023-04-15T07:31:11;5.07;;;4.57;;
17340;SDS011;8788;49.930;8.660;2023-04-15T07:33:39;6.70;;;4.53;;
17340;SDS011;8788;49.930;8.660;2023-04-15T07:36:06;5.65;;;4.85;;
17340;SDS011;8788;49.930;8.660;2023-04-15T07:38:33;7.78;;;4.63;;
17340;SDS011;8788;49.930;8.660;2023-04-15T07:41:01;7.57;;;4.65;;
17340;SDS011;8788;49.930;8.660;2023-04-15T07:43:29;6.18;;;4.65;;
17340;SDS011;8788;49.930;8.660;2023-04-15T07:45:58;6.75;;;4.43;;
17340;SDS011;8788;49.930;8.660;2023-04-15T07:48:25;6.47;;;4.95;;
17340;SDS011;8788;49.930;8.660;2023-04-15T07:50:52;6.38;;;4.90;;
17340;SDS011;8788;49.930;8.660;2023-04-15T07:53:19;6.13;;;4.70;;
17340;SDS011;8788;49.930;8.660;2023-04-15T07:55:46;6.13;;;4.80;;
17340;SDS011;8788;49.930;8.660;2023-04-15T07:58:13;6.18;;;4.50;;
17340;SDS011;8788;49.930;8.660;2023-04-15T08:00:40;7.25;;;4.90;;
17340;SDS011;8788;49.930;8.660;2023-04-15T08:03:09;7.15;;;4.75;;
17340;SDS011;8788;49.930;8.660;2023-04-15T08:05:36;7.25;;;5.47;;
17340;SDS011;8788;49.930;8.660;2023-04-15T08:08:04;7.60;;;5.95;;
17340;SDS011;8788;49.930;8.660;2023-04-15T08:10:31;5.88;;;5.05;;
17340;SDS011;8788;49.930;8.660;2023-04-15T08:12:58;5.57;;;5.07;;
17340;SDS011;8788;49.930;8.660;2023-04-15T08:15:25;6.20;;;5.45;;
17340;SDS011;8788;49.930;8.660;2023-04-15T08:17:52;5.93;;;4.80;;
17340;SDS011;8788;49.930;8.660;2023-04-15T08:20:21;7.63;;;5.72;;
17340;SDS011;8788;49.930;8.660;2023-04-15T08:22:48;5.50;;;5.00;;
17340;SDS011;8788;49.930;8.660;2023-04-15T08:25:16;8.50;;;5.13;;
17340;SDS011;8788;49.930;8.660;2023-04-15T08:27:44;6.88;;;5.00;;
17340;SDS011;8788;49.930;8.660;2023-04-15T08:30:11;8.57;;;4.80;;
17340;SDS011;8788;49.930;8.660;2023-04-15T08:32:38;6.63;;;5.20;;
17340;SDS011;8788;49.930;8.660;2023-04-15T08:35:11;6.75;;;4.78;;
17340;SDS011;8788;49.930;8.660;2023-04-15T08:37:39;5.00;;;4.05;;
17340;SDS011;8788;49.930;8.660;2023-04-15T08:40:07;6.47;;;3.95;;
17340;SDS011;8788;49.930;8.660;2023-04-15T08:42:36;6.50;;;3.83;;
17340;SDS011;8788;49.930;8.660;2023-04-15T08:45:09;7.00;;;3.75;;
17340;SDS011;8788;49.930;8.660;2023-04-15T08:47:36;4.55;;;3.67;;
17340;SDS011;8788;49.930;8.660;2023-04-15T08:50:05;4.20;;;3.25;;
17340;SDS011;8788;49.930;8.660;2023-04-15T08:52:35;4.80;;;3.20;;
17340;SDS011;8788;49.930;8.660;2023-04-15T08:55:04;7.18;;;3.05;;
17340;SDS011;8788;49.930;8.660;2023-04-15T08:57:33;2.33;;;2.13;;
17340;SDS011;8788;49.930;8.660;2023-04-15T09:00:02;2.92;;;2.40;;
17340;SDS011;8788;49.930;8.660;2023-04-15T09:02:31;2.80;;;2.50;;
17340;SDS011;8788;49.930;8.660;2023-04-15T09:04:58;3.22;;;2.95;;
17340;SDS011;8788;49.930;8.660;2023-04-15T09:07:25;4.78;;;3.08;;
17340;SDS011;8788;49.930;8.660;2023-04-15T09:09:52;3.33;;;3.03;;
17340;SDS011;8788;49.930;8.660;2023-04-15T09:12:20;3.22;;;2.88;;
17340;SDS011;8788;49.930;8.660;2023-04-15T09:14:47;2.33;;;2.13;;
17340;SDS011;8788;49.930;8.660;2023-04-15T09:17:17;2.00;;;1.80;;
17340;SDS011;8788;49.930;8.660;2023-04-15T09:19:45;3.58;;;1.27;;
17340;SDS011;8788;49.930;8.660;2023-04-15T09:22:13;2.70;;;1.60;;
17340;SDS011;8788;49.930;8.660;2023-04-15T09:24:40;1.45;;;1.35;;
17340;SDS011;8788;49.930;8.660;2023-04-15T09:27:08;1.52;;;1.40;;
17340;SDS011;8788;49.930;8.660;2023-04-15T09:29:36;1.92;;;1.10;;
17340;SDS011;8788;49.930;8.660;2023-04-15T09:32:10;1.50;;;1.00;;
17340;SDS011;8788;49.930;8.660;2023-04-15T09:34:38;1.55;;;1.10;;
17340;SDS011;8788;49.930;8.660;2023-04-15T09:37:05;1.35;;;1.17;;
17340;SDS011;8788;49.930;8.660;2023-04-15T09:39:44;1.10;;;0.90;;
17340;SDS011;8788;49.930;8.660;2023-04-15T09:42:14;1.58;;;1.40;;
17340;SDS011;8788;49.930;8.660;2023-04-15T09:44:49;1.65;;;1.50;;
17340;SDS011;8788;49.930;8.660;2023-04-15T09:47:26;2.55;;;1.10;;
17340;SDS011;8788;49.930;8.660;2023-04-15T09:49:54;1.70;;;1.38;;
17340;SDS011;8788;49.930;8.660;2023-04-15T09:52:22;3.15;;;1.58;;
17340;SDS011;8788;49.930;8.660;2023-04-15T09:54:50;2.05;;;1.65;;
17340;SDS011;8788;49.930;8.660;2023-04-15T09:57:19;2.38;;;1.70;;
17340;SDS011;8788;49.930;8.660;2023-04-15T09:59:47;1.60;;;1.40;;
17340;SDS011;8788;49.930;8.660;2023-04-15T10:02:17;2.55;;;1.73;;
17340;SDS011;8788;49.930;8.660;2023-04-15T10:04:46;1.75;;;1.65;;
17340;SDS011;8788;49.930;8.660;2023-04-15T10:07:14;2.85;;;1.42;;
17340;SDS011;8788;49.930;8.660;2023-04-15T10:09:44;1.30;;;1.20;;
17340;SDS011;8788;49.930;8.660;2023-04-15T10:12:12;1.50;;;1.40;;
17340;SDS011;8788;49.930;8.660;2023-04-15T10:14:42;2.45;;;1.30;;
17340;SDS011;8788;49.930;8.660;2023-04-15T10:17:11;2.05;;;1.58;;
17340;SDS011;8788;49.930;8.660;2023-04-15T10:19:38;1.40;;;1.25;;
17340;SDS011;8788;49.930;8.660;2023-04-15T10:22:06;2.47;;;1.40;;
17340;SDS011;8788;49.930;8.660;2023-04-15T10:24:34;1.40;;;1.30;;
17340;SDS011;8788;49.930;8.660;2023-04-15T10:27:02;3.65;;;1.40;;
17340;SDS011;8788;49.930;8.660;2023-04-15T10:29:30;2.85;;;1.50;;
17340;SDS011;8788;49.930;8.660;2023-04-15T10:31:58;1.63;;;1.33;;
17340;SDS011;8788;49.930;8.660;2023-04-15T10:34:27;1.80;;;1.13;;
17340;SDS011;8788;49.930;8.660;2023-04-15T10:36:55;1.27;;;1.17;;
17340;SDS011;8788;49.930;8.660;2023-04-15T10:42:12;2.63;;;1.00;;
17340;SDS011;8788;49.930;8.660;2023-04-15T10:44:41;4.97;;;1.70;;
17340;SDS011;8788;49.930;8.660;2023-04-15T10:47:09;1.48;;;1.00;;
17340;SDS011;8788;49.930;8.660;2023-04-15T10:49:45;1.58;;;1.13;;
17340;SDS011;8788;49.930;8.660;2023-04-15T10:52:15;1.73;;;1.15;;
17340;SDS011;8788;49.930;8.660;2023-04-15T10:54:43;1.90;;;1.10;;
17340;SDS011;8788;49.930;8.660;2023-04-15T10:57:14;1.33;;;1.00;;
17340;SDS011;8788;49.930;8.660;2023-04-15T10:59:59;1.13;;;1.02;;
17340;SDS011;8788;49.930;8.660;2023-04-15T11:02:40;3.72;;;1.05;;
17340;SDS011;8788;49.930;8.660;2023-04-15T11:05:10;1.25;;;1.10;;
17340;SDS011;8788;49.930;8.660;2023-04-15T11:07:39;1.95;;;1.10;;
17340;SDS011;8788;49.930;8.660;2023-04-15T11:13:14;2.55;;;1.13;;
17340;SDS011;8788;49.930;8.660;2023-04-15T11:15:42;1.00;;;0.90;;
17340;SDS011;8788;49.930;8.660;2023-04-15T11:18:11;1.38;;;1.05;;
17340;SDS011;8788;49.930;8.660;2023-04-15T11:20:40;1.30;;;0.90;;
17340;SDS011;8788;49.930;8.660;2023-04-15T11:23:09;1.75;;;1.20;;
17340;SDS011;8788;49.930;8.660;2023-04-15T11:25:37;4.30;;;1.38;;
17340;SDS011;8788;49.930;8.660;2023-04-15T11:28:04;1.80;;;1.45;;
17340;SDS011;8788;49.930;8.660;2023-04-15T11:30:33;3.30;;;1.48;;
17340;SDS011;8788;49.930;8.660;2023-04-15T11:33:01;1.45;;;1.13;;
17340;SDS011;8788;49.930;8.660;2023-04-15T11:35:30;1.75;;;1.17;;
17340;SDS011;8788;49.930;8.660;2023-04-15T11:37:59;1.92;;;1.67;;
17340;SDS011;8788;49.930;8.660;2023-04-15T11:40:29;3.17;;;1.10;;
17340;SDS011;8788;49.930;8.660;2023-04-15T11:43:03;2.22;;;1.02;;
17340;SDS011;8788;49.930;8.660;2023-04-15T11:45:31;0.98;;;0.93;;
17340;SDS011;8788;49.930;8.660;2023-04-15T11:48:04;2.55;;;1.10;;
17340;SDS011;8788;49.930;8.660;2023-04-15T11:50:33;2.67;;;1.40;;
17340;SDS011;8788;49.930;8.660;2023-04-15T11:53:02;2.28;;;1.13;;
17340;SDS011;8788;49.930;8.660;2023-04-15T11:55:31;2.80;;;1.23;;
17340;SDS011;8788;49.930;8.660;2023-04-15T11:58:08;1.60;;;0.73;;
17340;SDS011;8788;49.930;8.660;2023-04-15T12:00:37;3.08;;;1.80;;
17340;SDS011;8788;49.930;8.660;2023-04-15T12:03:12;1.30;;;1.15;;
17340;SDS011;8788;49.930;8.660;2023-04-15T12:11:37;2.67;;;1.45;;
17340;SDS011;8788;49.930;8.660;2023-04-15T12:14:06;1.48;;;0.70;;
17340;SDS011;8788;49.930;8.660;2023-04-15T12:16:36;2.53;;;0.70;;
17340;SDS011;8788;49.930;8.660;2023-04-15T12:19:06;5.13;;;0.80;;
17340;SDS011;8788;49.930;8.660;2023-04-15T12:21:35;2.17;;;1.13;;
17340;SDS011;8788;49.930;8.660;2023-04-15T12:24:05;4.30;;;1.58;;
17340;SDS011;8788;49.930;8.660;2023-04-15T12:26:34;1.50;;;1.40;;
17340;SDS011;8788;49.930;8.660;2023-04-15T12:29:04;2.03;;;1.48;;
17340;SDS011;8788;49.930;8.660;2023-04-15T12:31:33;1.42;;;1.33;;
17340;SDS011;8788;49.930;8.660;2023-04-15T12:34:01;2.80;;;1.90;;
17340;SDS011;8788;49.930;8.660;2023-04-15T12:36:29;1.98;;;1.63;;
17340;SDS011;8788;49.930;8.660;2023-04-15T12:39:00;2.13;;;1.70;;
17340;SDS011;8788;49.930;8.660;2023-04-15T12:41:30;1.83;;;1.70;;
17340;SDS011;8788;49.930;8.660;2023-04-15T12:43:57;1.85;;;1.58;;
17340;SDS011;8788;49.930;8.660;2023-04-15T12:46:24;2.55;;;1.95;;
17340;SDS011;8788;49.930;8.660;2023-04-15T12:48:52;4.20;;;2.00;;
17340;SDS011;8788;49.930;8.660;2023-04-15T12:51:19;2.30;;;2.05;;
17340;SDS011;8788;49.930;8.660;2023-04-15T12:53:46;2.10;;;2.00;;
17340;SDS011;8788;49.930;8.660;2023-04-15T12:56:13;2.63;;;2.40;;
17340;SDS011;8788;49.930;8.660;2023-04-15T12:58:42;4.20;;;2.28;;
17340;SDS011;8788;49.930;8.660;2023-04-15T13:01:09;5.63;;;2.28;;
17340;SDS011;8788;49.930;8.660;2023-04-15T13:03:36;2.30;;;2.10;;
17340;SDS011;8788;49.930;8.660;2023-04-15T13:06:03;2.28;;;1.75;;
17340;SDS011;8788;49.930;8.660;2023-04-15T13:08:31;1.95;;;1.85;;
17340;SDS011;8788;49.930;8.660;2023-04-15T13:10:58;2.22;;;2.03;;
17340;SDS011;8788;49.930;8.660;2023-04-15T13:13:25;5.32;;;1.90;;
17340;SDS011;8788;49.930;8.660;2023-04-15T13:15:54;2.80;;;2.15;;
17340;SDS011;8788;49.930;8.660;2023-04-15T13:18:21;2.55;;;2.35;;
17340;SDS011;8788;49.930;8.660;2023-04-15T13:20:49;3.13;;;2.35;;
17340;SDS011;8788;49.930;8.660;2023-04-15T13:23:16;2.67;;;1.88;;
17340;SDS011;8788;49.930;8.660;2023-04-15T13:25:43;1.65;;;1.55;;
17340;SDS011;8788;49.930;8.660;2023-04-15T13:28:10;3.50;;;2.15;;
17340;SDS011;8788;49.930;8.660;2023-04-15T13:30:38;2.50;;;1.50;;
17340;SDS011;8788;49.930;8.660;2023-04-15T13:33:06;2.25;;;1.40;;
17340;SDS011;8788;49.930;8.660;2023-04-15T13:35:33;1.33;;;1.20;;
17340;SDS011;8788;49.930;8.660;2023-04-15T13:38:01;0.90;;;0.88;;
17340;SDS011;8788;49.930;8.660;2023-04-15T13:40:28;3.47;;;1.00;;
17340;SDS011;8788;49.930;8.660;2023-04-15T13:42:55;0.80;;;0.80;;
17340;SDS011;8788;49.930;8.660;2023-04-15T13:45:22;1.45;;;0.70;;
17340;SDS011;8788;49.930;8.660;2023-04-15T13:47:49;0.60;;;0.60;;
17340;SDS011;8788;49.930;8.660;2023-04-15T13:50:18;0.77;;;0.60;;
17340;SDS011;8788;49.930;8.660;2023-04-15T13:52:45;0.90;;;0.50;;
17340;SDS011;8788;49.930;8.660;2023-04-15T13:55:13;1.10;;;0.60;;
17340;SDS011;8788;49.930;8.660;2023-04-15T13:57:40;0.60;;;0.60;;
17340;SDS011;8788;49.930;8.660;2023-04-15T14:00:08;0.60;;;0.60;;
17340;SDS011;8788;49.930;8.660;2023-04-15T14:02:36;1.35;;;0.50;;
17340;SDS011;8788;49.930;8.660;2023-04-15T14:05:03;0.60;;;0.60;;
17340;SDS011;8788;49.930;8.660;2023-04-15T14:07:32;0.50;;;0.50;;
17340;SDS011;8788;49.930;8.660;2023-04-15T14:09:59;1.80;;;0.70;;
17340;SDS011;8788;49.930;8.660;2023-04-15T14:12:26;1.08;;;0.77;;
17340;SDS011;8788;49.930;8.660;2023-04-15T14:14:53;0.63;;;0.63;;
17340;SDS011;8788;49.930;8.660;2023-04-15T14:17:20;1.00;;;0.65;;
17340;SDS011;8788;49.930;8.660;2023-04-15T14:19:47;0.52;;;0.40;;
17340;SDS011;8788;49.930;8.660;2023-04-15T14:22:15;0.93;;;0.70;;
17340;SDS011;8788;49.930;8.660;2023-04-15T14:24:44;1.35;;;0.80;;
17340;SDS011;8788;49.930;8.660;2023-04-15T14:27:12;0.50;;;0.50;;
17340;SDS011;8788;49.930;8.660;2023-04-15T14:29:40;2.30;;;0.57;;
17340;SDS011;8788;49.930;8.660;2023-04-15T14:32:08;0.57;;;0.47;;
17340;SDS011;8788;49.930;8.660;2023-04-15T14:34:35;2.08;;;0.82;;
17340;SDS011;8788;49.930;8.660;2023-04-15T14:37:02;1.10;;;1.02;;
17340;SDS011;8788;49.930;8.660;2023-04-15T14:39:29;1.95;;;0.60;;
17340;SDS011;8788;49.930;8.660;2023-04-15T14:41:57;0.65;;;0.65;;
17340;SDS011;8788;49.930;8.660;2023-04-15T14:44:25;0.70;;;0.70;;
17340;SDS011;8788;49.930;8.660;2023-04-15T14:46:52;2.00;;;0.85;;
17340;SDS011;8788;49.930;8.660;2023-04-15T14:49:20;1.23;;;0.60;;
17340;SDS011;8788;49.930;8.660;2023-04-15T14:51:47;1.60;;;0.70;;
17340;SDS011;8788;49.930;8.660;2023-04-15T14:54:14;1.48;;;0.82;;
17340;SDS011;8788;49.930;8.660;2023-04-15T14:56:41;0.70;;;0.70;;
17340;SDS011;8788;49.930;8.660;2023-04-15T14:59:10;0.50;;;0.50;;
17340;SDS011;8788;49.930;8.660;2023-04-15T15:01:37;2.05;;;0.70;;
17340;SDS011;8788;49.930;8.660;2023-04-15T15:04:04;0.68;;;0.55;;
17340;SDS011;8788;49.930;8.660;2023-04-15T15:06:31;0.77;;;0.70;;
17340;SDS011;8788;49.930;8.660;2023-04-15T15:08:59;0.60;;;0.60;;
17340;SDS011;8788;49.930;8.660;2023-04-15T15:11:26;0.70;;;0.70;;
17340;SDS011;8788;49.930;8.660;2023-04-15T15:13:53;0.70;;;0.70;;
17340;SDS011;8788;49.930;8.660;2023-04-15T15:16:22;0.85;;;0.82;;